Terminal Aerodrome Forecast
Issued by NWS

Home | Current Version | Previous Version | Text Only | Print | Product List | Glossary On
Versions: 1 2 3 4 5 6 7 8 9 10 11 12 13 14 15 16 17 18 19 20 21 22 23 24 25 26 27 28
000
FTUS41 KAKQ 250520
TAFPHF
TAF
KPHF 250520Z 2506/2606 05004KT P6SM VCSH BKN080 BKN120
     FM250700 06005KT P6SM SCT080 BKN120
     FM251400 09007KT P6SM SCT120 BKN250
     FM251800 12009KT P6SM SCT050 BKN250
     FM260000 16004KT P6SM BKN150=

USA.gov is the U.S. government's official web portal to all federal, state and local government web resources and services.